sensor_id;sensor_type;location;lat;lon;timestamp;pressure;altitude;pressure_sealevel;temperature;humidity
43430;BME280;29028;43.234;27.896;2022-08-23T04:01:27;99435.66;;;21.98;100.00
43430;BME280;29028;43.234;27.896;2022-08-23T04:01:49;99474.50;;;22.20;100.00
43430;BME280;29028;43.234;27.896;2022-08-23T04:02:10;99479.13;;;22.24;100.00
43430;BME280;29028;43.234;27.896;2022-08-23T04:02:32;99477.47;;;22.23;100.00
43430;BME280;29028;43.234;27.896;2022-08-23T04:02:53;99472.28;;;22.22;100.00
43430;BME280;29028;43.234;27.896;2022-08-23T04:03:15;99474.50;;;22.20;100.00
43430;BME280;29028;43.234;27.896;2022-08-23T04:03:36;99476.41;;;22.19;100.00
43430;BME280;29028;43.234;27.896;2022-08-23T04:03:57;99479.97;;;22.20;100.00
43430;BME280;29028;43.234;27.896;2022-08-23T04:04:19;99481.06;;;22.24;100.00
43430;BME280;29028;43.234;27.896;2022-08-23T04:04:41;99467.59;;;22.27;100.00
43430;BME280;29028;43.234;27.896;2022-08-23T04:05:02;99479.34;;;22.33;100.00
43430;BME280;29028;43.234;27.896;2022-08-23T04:05:23;99481.84;;;22.29;100.00
43430;BME280;29028;43.234;27.896;2022-08-23T04:05:44;99471.16;;;22.28;100.00
43430;BME280;29028;43.234;27.896;2022-08-23T04:06:06;99470.59;;;22.26;100.00
43430;BME280;29028;43.234;27.896;2022-08-23T04:06:28;99476.66;;;22.28;100.00
43430;BME280;29028;43.234;27.896;2022-08-23T04:06:49;99474.44;;;22.30;100.00
43430;BME280;29028;43.234;27.896;2022-08-23T04:07:10;99473.06;;;22.27;100.00
43430;BME280;29028;43.234;27.896;2022-08-23T04:07:32;99467.03;;;22.30;100.00
43430;BME280;29028;43.234;27.896;2022-08-23T04:07:52;99471.16;;;22.28;100.00
43430;BME280;29028;43.234;27.896;2022-08-23T04:08:14;99477.22;;;22.25;100.00
43430;BME280;29028;43.234;27.896;2022-08-23T04:08:35;99478.00;;;22.30;100.00
43430;BME280;29028;43.234;27.896;2022-08-23T04:08:56;99476.06;;;22.31;100.00
43430;BME280;29028;43.234;27.896;2022-08-23T04:09:18;99473.56;;;22.34;100.00
43430;BME280;29028;43.234;27.896;2022-08-23T04:09:39;99482.88;;;22.38;100.00
43430;BME280;29028;43.234;27.896;2022-08-23T04:10:00;99479.88;;;22.40;100.00
43430;BME280;29028;43.234;27.896;2022-08-23T04:10:21;99477.38;;;22.43;100.00
43430;BME280;29028;43.234;27.896;2022-08-23T04:10:43;99481.22;;;22.47;100.00
43430;BME280;29028;43.234;27.896;2022-08-23T04:11:04;99468.06;;;22.44;100.00
43430;BME280;29028;43.234;27.896;2022-08-23T04:11:25;99471.34;;;22.41;100.00
43430;BME280;29028;43.234;27.896;2022-08-23T04:11:47;99471.34;;;22.46;100.00
43430;BME280;29028;43.234;27.896;2022-08-23T04:12:10;99475.19;;;22.45;100.00
43430;BME280;29028;43.234;27.896;2022-08-23T04:12:31;99480.13;;;22.48;100.00
43430;BME280;29028;43.234;27.896;2022-08-23T04:12:52;99481.75;;;22.49;100.00
43430;BME280;29028;43.234;27.896;2022-08-23T04:13:14;99474.59;;;22.53;100.00
43430;BME280;29028;43.234;27.896;2022-08-23T04:13:36;99480.06;;;22.58;100.00
43430;BME280;29028;43.234;27.896;2022-08-23T04:13:57;99478.69;;;22.56;100.00
43430;BME280;29028;43.234;27.896;2022-08-23T04:14:18;99483.59;;;22.59;100.00
43430;BME280;29028;43.234;27.896;2022-08-23T04:14:39;99475.09;;;22.60;100.00
43430;BME280;29028;43.234;27.896;2022-08-23T04:15:01;99478.47;;;22.52;100.00
43430;BME280;29028;43.234;27.896;2022-08-23T04:15:25;99478.47;;;22.52;100.00
43430;BME280;29028;43.234;27.896;2022-08-23T04:15:47;99481.19;;;22.52;100.00
43430;BME280;29028;43.234;27.896;2022-08-23T04:16:09;99471.31;;;22.51;100.00
43430;BME280;29028;43.234;27.896;2022-08-23T04:16:32;99485.06;;;22.46;100.00
43430;BME280;29028;43.234;27.896;2022-08-23T04:16:57;99480.41;;;22.47;100.00
43430;BME280;29028;43.234;27.896;2022-08-23T04:17:17;99479.28;;;22.43;100.00
43430;BME280;29028;43.234;27.896;2022-08-23T04:17:40;99476.00;;;22.41;100.00
43430;BME280;29028;43.234;27.896;2022-08-23T04:18:02;99477.66;;;22.42;100.00
43430;BME280;29028;43.234;27.896;2022-08-23T04:18:23;99475.75;;;22.42;100.00
43430;BME280;29028;43.234;27.896;2022-08-23T04:18:44;99471.91;;;22.38;100.00
43430;BME280;29028;43.234;27.896;2022-08-23T04:19:06;99473.81;;;22.38;100.00
43430;BME280;29028;43.234;27.896;2022-08-23T04:19:28;99474.16;;;22.31;100.00
43430;BME280;29028;43.234;27.896;2022-08-23T04:19:50;99475.75;;;22.37;100.00
43430;BME280;29028;43.234;27.896;2022-08-23T04:20:11;99467.53;;;22.37;100.00
43430;BME280;29028;43.234;27.896;2022-08-23T04:20:32;99459.63;;;22.31;100.00
43430;BME280;29028;43.234;27.896;2022-08-23T04:20:55;99473.03;;;22.37;100.00
43430;BME280;29028;43.234;27.896;2022-08-23T04:21:18;99468.66;;;22.36;100.00
43430;BME280;29028;43.234;27.896;2022-08-23T04:21:44;99465.03;;;22.41;100.00
43430;BME280;29028;43.234;27.896;2022-08-23T04:22:10;99473.56;;;22.34;100.00
43430;BME280;29028;43.234;27.896;2022-08-23T04:22:32;99472.44;;;22.45;100.00
43430;BME280;29028;43.234;27.896;2022-08-23T04:22:53;99472.13;;;22.52;100.00
43430;BME280;29028;43.234;27.896;2022-08-23T04:23:14;99468.31;;;22.48;100.00
43430;BME280;29028;43.234;27.896;2022-08-23T04:23:36;99469.41;;;22.47;100.00
43430;BME280;29028;43.234;27.896;2022-08-23T04:23:56;99464.75;;;22.47;100.00
43430;BME280;29028;43.234;27.896;2022-08-23T04:24:18;99466.94;;;22.45;100.00
43430;BME280;29028;43.234;27.896;2022-08-23T04:24:40;99465.88;;;22.41;100.00
43430;BME280;29028;43.234;27.896;2022-08-23T04:25:01;99470.81;;;22.44;100.00
43430;BME280;29028;43.234;27.896;2022-08-23T04:25:22;99471.03;;;22.53;100.00
43430;BME280;29028;43.234;27.896;2022-08-23T04:25:45;99470.53;;;22.46;100.00
43430;BME280;29028;43.234;27.896;2022-08-23T04:26:06;99464.75;;;22.47;100.00
43430;BME280;29028;43.234;27.896;2022-08-23T04:26:27;99470.50;;;22.51;100.00
43430;BME280;29028;43.234;27.896;2022-08-23T04:26:48;99470.78;;;22.49;100.00
43430;BME280;29028;43.234;27.896;2022-08-23T04:27:10;99468.00;;;22.54;100.00
43430;BME280;29028;43.234;27.896;2022-08-23T04:27:31;99463.03;;;22.56;100.00
43430;BME280;29028;43.234;27.896;2022-08-23T04:27:52;99466.81;;;22.65;100.00
43430;BME280;29028;43.234;27.896;2022-08-23T04:28:13;99476.72;;;22.61;100.00
43430;BME280;29028;43.234;27.896;2022-08-23T04:28:34;99474.81;;;22.62;100.00
43430;BME280;29028;43.234;27.896;2022-08-23T04:28:56;99462.25;;;22.56;100.00
43430;BME280;29028;43.234;27.896;2022-08-23T04:29:17;99459.81;;;22.49;100.00
43430;BME280;29028;43.234;27.896;2022-08-23T04:29:38;99462.78;;;22.53;100.00
43430;BME280;29028;43.234;27.896;2022-08-23T04:29:59;99466.38;;;22.53;100.00
43430;BME280;29028;43.234;27.896;2022-08-23T04:30:21;99453.13;;;22.60;100.00
43430;BME280;29028;43.234;27.896;2022-08-23T04:30:42;99460.22;;;22.66;100.00
43430;BME280;29028;43.234;27.896;2022-08-23T04:31:05;99463.19;;;22.75;100.00
43430;BME280;29028;43.234;27.896;2022-08-23T04:31:27;99461.56;;;22.69;100.00
43430;BME280;29028;43.234;27.896;2022-08-23T04:31:50;99465.19;;;22.64;100.00
43430;BME280;29028;43.234;27.896;2022-08-23T04:32:11;99463.59;;;22.58;100.00
43430;BME280;29028;43.234;27.896;2022-08-23T04:32:32;99464.66;;;22.57;100.00
43430;BME280;29028;43.234;27.896;2022-08-23T04:32:52;99467.16;;;22.54;100.00
43430;BME280;29028;43.234;27.896;2022-08-23T04:33:13;99468.78;;;22.60;100.00
43430;BME280;29028;43.234;27.896;2022-08-23T04:33:35;99466.00;;;22.65;100.00
43430;BME280;29028;43.234;27.896;2022-08-23T04:33:56;99456.09;;;22.69;100.00
43430;BME280;29028;43.234;27.896;2022-08-23T04:34:17;99464.03;;;22.70;100.00
43430;BME280;29028;43.234;27.896;2022-08-23T04:34:38;99458.28;;;22.72;100.00
43430;BME280;29028;43.234;27.896;2022-08-23T04:34:59;99476.94;;;22.70;100.00
43430;BME280;29028;43.234;27.896;2022-08-23T04:35:21;99470.06;;;22.72;100.00
43430;BME280;29028;43.234;27.896;2022-08-23T04:35:42;99466.22;;;22.68;100.00
43430;BME280;29028;43.234;27.896;2022-08-23T04:36:03;99470.41;;;22.66;100.00
43430;BME280;29028;43.234;27.896;2022-08-23T04:36:24;99464.06;;;22.65;100.00
43430;BME280;29028;43.234;27.896;2022-08-23T04:36:46;99468.16;;;22.73;100.00
43430;BME280;29028;43.234;27.896;2022-08-23T04:37:09;99467.00;;;22.79;100.00
43430;BME280;29028;43.234;27.896;2022-08-23T04:37:30;99479.88;;;22.78;100.00
43430;BME280;29028;43.234;27.896;2022-08-23T04:37:51;99467.88;;;22.74;100.00
43430;BME280;29028;43.234;27.896;2022-08-23T04:38:12;99464.31;;;22.69;100.00
43430;BME280;29028;43.234;27.896;2022-08-23T04:38:34;99467.03;;;22.74;100.00
43430;BME280;29028;43.234;27.896;2022-08-23T04:38:55;99469.97;;;22.82;100.00
43430;BME280;29028;43.234;27.896;2022-08-23T04:39:16;99474.28;;;22.93;100.00
43430;BME280;29028;43.234;27.896;2022-08-23T04:39:37;99473.44;;;22.93;100.00
43430;BME280;29028;43.234;27.896;2022-08-23T04:40:13;99469.66;;;22.89;100.00
43430;BME280;29028;43.234;27.896;2022-08-23T04:40:52;99469.38;;;22.90;100.00
43430;BME280;29028;43.234;27.896;2022-08-23T04:41:31;99484.44;;;22.93;100.00
43430;BME280;29028;43.234;27.896;2022-08-23T04:42:11;99489.66;;;22.94;100.00
43430;BME280;29028;43.234;27.896;2022-08-23T04:42:38;99481.09;;;23.01;100.00
43430;BME280;29028;43.234;27.896;2022-08-23T04:43:00;99482.16;;;23.05;100.00
43430;BME280;29028;43.234;27.896;2022-08-23T04:43:21;99476.72;;;23.00;100.00
43430;BME280;29028;43.234;27.896;2022-08-23T04:43:42;99492.31;;;23.04;100.00
43430;BME280;29028;43.234;27.896;2022-08-23T04:44:03;99472.63;;;22.97;100.00
43430;BME280;29028;43.234;27.896;2022-08-23T04:44:26;99489.56;;;23.04;100.00
43430;BME280;29028;43.234;27.896;2022-08-23T04:44:47;99483.00;;;23.00;100.00
43430;BME280;29028;43.234;27.896;2022-08-23T04:45:08;99485.03;;;22.90;100.00
43430;BME280;29028;43.234;27.896;2022-08-23T04:45:30;99481.13;;;22.96;100.00
43430;BME280;29028;43.234;27.896;2022-08-23T04:45:52;99480.03;;;22.97;100.00
43430;BME280;29028;43.234;27.896;2022-08-23T04:46:14;99482.72;;;23.02;100.00
43430;BME280;29028;43.234;27.896;2022-08-23T04:46:35;99484.03;;;23.09;100.00
43430;BME280;29028;43.234;27.896;2022-08-23T04:46:58;99479.03;;;23.16;100.00
43430;BME280;29028;43.234;27.896;2022-08-23T04:47:19;99479.34;;;23.15;100.00
43430;BME280;29028;43.234;27.896;2022-08-23T04:47:40;99489.44;;;23.24;100.00
43430;BME280;29028;43.234;27.896;2022-08-23T04:48:03;99486.44;;;23.21;100.00
43430;BME280;29028;43.234;27.896;2022-08-23T04:48:24;99480.69;;;23.17;100.00
43430;BME280;29028;43.234;27.896;2022-08-23T04:48:46;99484.50;;;23.21;100.00
43430;BME280;29028;43.234;27.896;2022-08-23T04:49:07;99487.19;;;23.26;100.00
43430;BME280;29028;43.234;27.896;2022-08-23T04:49:28;99481.66;;;23.31;100.00
43430;BME280;29028;43.234;27.896;2022-08-23T04:49:50;99484.38;;;23.36;100.00
43430;BME280;29028;43.234;27.896;2022-08-23T04:50:11;99477.25;;;23.35;100.00
43430;BME280;29028;43.234;27.896;2022-08-23T04:50:32;99479.88;;;23.45;100.00
43430;BME280;29028;43.234;27.896;2022-08-23T04:50:52;99482.63;;;23.45;100.00
43430;BME280;29028;43.234;27.896;2022-08-23T04:51:15;99484.50;;;23.50;100.00
43430;BME280;29028;43.234;27.896;2022-08-23T04:51:36;99481.47;;;23.51;100.00
43430;BME280;29028;43.234;27.896;2022-08-23T04:51:57;99482.63;;;23.45;100.00
43430;BME280;29028;43.234;27.896;2022-08-23T04:52:18;99481.25;;;23.48;100.00
43430;BME280;29028;43.234;27.896;2022-08-23T04:52:40;99484.22;;;23.51;100.00
43430;BME280;29028;43.234;27.896;2022-08-23T04:53:01;99490.28;;;23.48;100.00
43430;BME280;29028;43.234;27.896;2022-08-23T04:53:22;99490.00;;;23.50;100.00
43430;BME280;29028;43.234;27.896;2022-08-23T04:53:43;99482.63;;;23.45;100.00
43430;BME280;29028;43.234;27.896;2022-08-23T04:54:05;99486.38;;;23.54;100.00
43430;BME280;29028;43.234;27.896;2022-08-23T04:54:27;99486.91;;;23.56;100.00
43430;BME280;29028;43.234;27.896;2022-08-23T04:54:48;99481.28;;;23.66;100.00
43430;BME280;29028;43.234;27.896;2022-08-23T04:55:09;99486.44;;;23.73;100.00
43430;BME280;29028;43.234;27.896;2022-08-23T04:55:31;99488.13;;;23.69;100.00
43430;BME280;29028;43.234;27.896;2022-08-23T04:55:53;99498.78;;;23.75;100.00
43430;BME280;29028;43.234;27.896;2022-08-23T04:56:14;99493.00;;;23.77;100.00
43430;BME280;29028;43.234;27.896;2022-08-23T04:56:35;99491.31;;;23.81;100.00
43430;BME280;29028;43.234;27.896;2022-08-23T04:56:57;99495.94;;;23.85;100.00
43430;BME280;29028;43.234;27.896;2022-08-23T04:57:18;99490.44;;;23.85;100.00
43430;BME280;29028;43.234;27.896;2022-08-23T04:57:39;99496.97;;;23.94;100.00
43430;BME280;29028;43.234;27.896;2022-08-23T04:58:02;99498.88;;;23.94;100.00
43430;BME280;29028;43.234;27.896;2022-08-23T04:58:24;99503.25;;;23.95;100.00
43430;BME280;29028;43.234;27.896;2022-08-23T04:58:44;99500.16;;;24.01;100.00
43430;BME280;29028;43.234;27.896;2022-08-23T04:59:06;99500.69;;;24.03;100.00
43430;BME280;29028;43.234;27.896;2022-08-23T04:59:27;99500.78;;;23.93;100.00
43430;BME280;29028;43.234;27.896;2022-08-23T04:59:49;99504.16;;;23.90;100.00
43430;BME280;29028;43.234;27.896;2022-08-23T05:00:10;99491.25;;;23.86;100.00
43430;BME280;29028;43.234;27.896;2022-08-23T05:00:32;99494.53;;;23.88;100.00
43430;BME280;29028;43.234;27.896;2022-08-23T05:00:53;99499.72;;;23.94;100.00
43430;BME280;29028;43.234;27.896;2022-08-23T05:01:15;99501.41;;;23.90;100.00
43430;BME280;29028;43.234;27.896;2022-08-23T05:01:36;99495.91;;;23.90;100.00
43430;BME280;29028;43.234;27.896;2022-08-23T05:01:58;99489.22;;;23.96;100.00
43430;BME280;29028;43.234;27.896;2022-08-23T05:02:19;99498.66;;;23.90;100.00
43430;BME280;29028;43.234;27.896;2022-08-23T05:02:41;99499.38;;;23.96;100.00
43430;BME280;29028;43.234;27.896;2022-08-23T05:03:02;99499.94;;;23.98;100.00
43430;BME280;29028;43.234;27.896;2022-08-23T05:03:23;99502.91;;;24.01;100.00
43430;BME280;29028;43.234;27.896;2022-08-23T05:03:44;99498.59;;;23.95;100.00
43430;BME280;29028;43.234;27.896;2022-08-23T05:04:06;99485.44;;;23.87;100.00
43430;BME280;29028;43.234;27.896;2022-08-23T05:04:27;99499.66;;;23.99;100.00
43430;BME280;29028;43.234;27.896;2022-08-23T05:04:48;99501.84;;;23.97;100.00
43430;BME280;29028;43.234;27.896;2022-08-23T05:05:10;99498.59;;;23.95;100.00
43430;BME280;29028;43.234;27.896;2022-08-23T05:05:31;99499.34;;;24.01;100.00
43430;BME280;29028;43.234;27.896;2022-08-23T05:05:53;99509.31;;;23.97;100.00
43430;BME280;29028;43.234;27.896;2022-08-23T05:06:14;99498.59;;;23.95;100.00
43430;BME280;29028;43.234;27.896;2022-08-23T05:06:35;99498.94;;;23.89;100.00
43430;BME280;29028;43.234;27.896;2022-08-23T05:06:57;99495.91;;;23.90;100.00
43430;BME280;29028;43.234;27.896;2022-08-23T05:07:18;99503.03;;;23.91;100.00
43430;BME280;29028;43.234;27.896;2022-08-23T05:07:39;99499.16;;;23.92;100.00
43430;BME280;29028;43.234;27.896;2022-08-23T05:08:00;99504.09;;;23.95;100.00
43430;BME280;29028;43.234;27.896;2022-08-23T05:08:22;99503.25;;;23.95;100.00
43430;BME280;29028;43.234;27.896;2022-08-23T05:08:43;99497.25;;;23.93;100.00
43430;BME280;29028;43.234;27.896;2022-08-23T05:09:04;99505.16;;;23.99;100.00
43430;BME280;29028;43.234;27.896;2022-08-23T05:09:25;99507.59;;;24.01;100.00
43430;BME280;29028;43.234;27.896;2022-08-23T05:09:47;99501.84;;;23.97;100.00
43430;BME280;29028;43.234;27.896;2022-08-23T05:10:10;99507.06;;;23.99;100.00
43430;BME280;29028;43.234;27.896;2022-08-23T05:10:32;99500.78;;;23.93;100.00
43430;BME280;29028;43.234;27.896;2022-08-23T05:10:52;99500.78;;;23.93;100.00
43430;BME280;29028;43.234;27.896;2022-08-23T05:11:14;99498.31;;;23.97;100.00
43430;BME280;29028;43.234;27.896;2022-08-23T05:11:36;99505.94;;;24.00;100.00
43430;BME280;29028;43.234;27.896;2022-08-23T05:11:57;99504.31;;;23.99;100.00
43430;BME280;29028;43.234;27.896;2022-08-23T05:12:19;99501.50;;;24.04;100.00
43430;BME280;29028;43.234;27.896;2022-08-23T05:12:41;99497.94;;;24.03;100.00
43430;BME280;29028;43.234;27.896;2022-08-23T05:13:02;99499.81;;;24.08;100.00
43430;BME280;29028;43.234;27.896;2022-08-23T05:13:23;99505.25;;;24.13;100.00
43430;BME280;29028;43.234;27.896;2022-08-23T05:13:45;99503.06;;;24.10;100.00
43430;BME280;29028;43.234;27.896;2022-08-23T05:14:06;99488.97;;;24.16;100.00
43430;BME280;29028;43.234;27.896;2022-08-23T05:14:27;99507.19;;;24.12;100.00
43430;BME280;29028;43.234;27.896;2022-08-23T05:14:49;99501.69;;;24.12;100.00
43430;BME280;29028;43.234;27.896;2022-08-23T05:15:10;99496.06;;;23.99;100.00
43430;BME280;29028;43.234;27.896;2022-08-23T05:15:31;99500.63;;;24.08;100.00
43430;BME280;29028;43.234;27.896;2022-08-23T05:15:52;99503.81;;;24.15;100.00
43430;BME280;29028;43.234;27.896;2022-08-23T05:16:14;99506.28;;;24.17;100.00
43430;BME280;29028;43.234;27.896;2022-08-23T05:16:35;99504.59;;;24.21;100.00
43430;BME280;29028;43.234;27.896;2022-08-23T05:16:57;99501.00;;;24.20;100.00
43430;BME280;29028;43.234;27.896;2022-08-23T05:17:18;99508.97;;;24.22;100.00
43430;BME280;29028;43.234;27.896;2022-08-23T05:17:40;99504.59;;;24.21;100.00
43430;BME280;29028;43.234;27.896;2022-08-23T05:18:01;99498.03;;;24.17;100.00
43430;BME280;29028;43.234;27.896;2022-08-23T05:18:22;99502.13;;;24.19;100.00
43430;BME280;29028;43.234;27.896;2022-08-23T05:18:43;99513.06;;;24.24;100.00
43430;BME280;29028;43.234;27.896;2022-08-23T05:19:04;99508.69;;;24.23;100.00
43430;BME280;29028;43.234;27.896;2022-08-23T05:19:26;99503.91;;;24.29;100.00
43430;BME280;29028;43.234;27.896;2022-08-23T05:19:47;99505.25;;;24.31;100.00
43430;BME280;29028;43.234;27.896;2022-08-23T05:20:09;99500.66;;;24.27;100.00
43430;BME280;29028;43.234;27.896;2022-08-23T05:20:30;99511.81;;;24.35;100.00
43430;BME280;29028;43.234;27.896;2022-08-23T05:20:52;99511.53;;;24.37;100.00
43430;BME280;29028;43.234;27.896;2022-08-23T05:21:14;99511.31;;;24.33;100.00
43430;BME280;29028;43.234;27.896;2022-08-23T05:21:41;99512.09;;;24.34;100.00
43430;BME280;29028;43.234;27.896;2022-08-23T05:22:06;99501.41;;;24.32;100.00
43430;BME280;29028;43.234;27.896;2022-08-23T05:22:31;99510.63;;;24.41;100.00
43430;BME280;29028;43.234;27.896;2022-08-23T05:22:52;99511.97;;;24.44;100.00
43430;BME280;29028;43.234;27.896;2022-08-23T05:23:14;99514.72;;;24.44;100.00
43430;BME280;29028;43.234;27.896;2022-08-23T05:23:34;99519.94;;;24.45;100.00
43430;BME280;29028;43.234;27.896;2022-08-23T05:23:56;99518.44;;;24.34;100.00
43430;BME280;29028;43.234;27.896;2022-08-23T05:24:18;99511.59;;;24.32;100.00
43430;BME280;29028;43.234;27.896;2022-08-23T05:24:38;99513.22;;;24.33;100.00
43430;BME280;29028;43.234;27.896;2022-08-23T05:25:00;99514.34;;;24.32;100.00
43430;BME280;29028;43.234;27.896;2022-08-23T05:25:21;99515.69;;;24.34;100.00
43430;BME280;29028;43.234;27.896;2022-08-23T05:25:42;99514.78;;;24.39;100.00
43430;BME280;29028;43.234;27.896;2022-08-23T05:26:09;99517.25;;;24.40;100.00
43430;BME280;29028;43.234;27.896;2022-08-23T05:26:31;99516.13;;;24.41;100.00
43430;BME280;29028;43.234;27.896;2022-08-23T05:26:52;99513.38;;;24.41;100.00
43430;BME280;29028;43.234;27.896;2022-08-23T05:27:13;99518.31;;;24.44;100.00
43430;BME280;29028;43.234;27.896;2022-08-23T05:27:34;99511.91;;;24.49;100.00
43430;BME280;29028;43.234;27.896;2022-08-23T05:27:56;99511.19;;;24.43;100.00
43430;BME280;29028;43.234;27.896;2022-08-23T05:28:20;99512.81;;;24.44;100.00
43430;BME280;29028;43.234;27.896;2022-08-23T05:28:43;99516.50;;;24.53;100.00
43430;BME280;29028;43.234;27.896;2022-08-23T05:29:04;99515.09;;;24.56;100.00
43430;BME280;29028;43.234;27.896;2022-08-23T05:29:26;99521.34;;;24.66;100.00
43430;BME280;29028;43.234;27.896;2022-08-23T05:29:48;99500.94;;;24.67;100.00
43430;BME280;29028;43.234;27.896;2022-08-23T05:30:09;99515.34;;;24.78;100.00
43430;BME280;29028;43.234;27.896;2022-08-23T05:30:31;99518.88;;;24.83;100.00
43430;BME280;29028;43.234;27.896;2022-08-23T05:30:57;99516.94;;;24.84;100.00
43430;BME280;29028;43.234;27.896;2022-08-23T05:31:21;99513.88;;;24.85;100.00
43430;BME280;29028;43.234;27.896;2022-08-23T05:31:42;99510.69;;;24.78;100.00
43430;BME280;29028;43.234;27.896;2022-08-23T05:32:04;99512.31;;;24.79;100.00
43430;BME280;29028;43.234;27.896;2022-08-23T05:32:25;99506.50;;;24.81;100.00
43430;BME280;29028;43.234;27.896;2022-08-23T05:32:47;99514.91;;;24.89;100.00
43430;BME280;29028;43.234;27.896;2022-08-23T05:33:08;99519.91;;;24.87;100.00
43430;BME280;29028;43.234;27.896;2022-08-23T05:33:31;99513.06;;;24.85;100.00
43430;BME280;29028;43.234;27.896;2022-08-23T05:33:52;99513.06;;;24.85;100.00
43430;BME280;29028;43.234;27.896;2022-08-23T05:34:13;99523.47;;;24.88;100.00
43430;BME280;29028;43.234;27.896;2022-08-23T05:34:36;99513.50;;;24.92;100.00
43430;BME280;29028;43.234;27.896;2022-08-23T05:34:57;99521.97;;;24.95;100.00
43430;BME280;29028;43.234;27.896;2022-08-23T05:35:17;99517.44;;;25.04;100.00
43430;BME280;29028;43.234;27.896;2022-08-23T05:35:39;99513.25;;;25.07;100.00
43430;BME280;29028;43.234;27.896;2022-08-23T05:36:01;99521.69;;;24.97;100.00
43430;BME280;29028;43.234;27.896;2022-08-23T05:36:23;99515.34;;;24.96;100.00
43430;BME280;29028;43.234;27.896;2022-08-23T05:36:43;99515.25;;;25.01;100.00
43430;BME280;29028;43.234;27.896;2022-08-23T05:37:05;99523.75;;;25.05;100.00
43430;BME280;29028;43.234;27.896;2022-08-23T05:37:26;99514.69;;;25.04;100.00
43430;BME280;29028;43.234;27.896;2022-08-23T05:37:47;99525.00;;;25.12;100.00
43430;BME280;29028;43.234;27.896;2022-08-23T05:38:08;99519.81;;;25.11;100.00
43430;BME280;29028;43.234;27.896;2022-08-23T05:38:30;99515.59;;;25.13;100.00
43430;BME280;29028;43.234;27.896;2022-08-23T05:38:51;99521.22;;;25.08;100.00
43430;BME280;29028;43.234;27.896;2022-08-23T05:39:12;99525.41;;;25.06;100.00
43430;BME280;29028;43.234;27.896;2022-08-23T05:39:33;99514.38;;;25.06;100.00
43430;BME280;29028;43.234;27.896;2022-08-23T05:39:55;99520.63;;;25.11;100.00
43430;BME280;29028;43.234;27.896;2022-08-23T05:40:16;99518.69;;;25.12;100.00
43430;BME280;29028;43.234;27.896;2022-08-23T05:40:37;99520.31;;;25.13;100.00
43430;BME280;29028;43.234;27.896;2022-08-23T05:40:58;99519.81;;;25.11;100.00
43430;BME280;29028;43.234;27.896;2022-08-23T05:41:21;99512.78;;;25.18;100.00
43430;BME280;29028;43.234;27.896;2022-08-23T05:41:42;99511.34;;;25.21;100.00
43430;BME280;29028;43.234;27.896;2022-08-23T05:42:03;99515.78;;;25.22;100.00
43430;BME280;29028;43.234;27.896;2022-08-23T05:42:24;99512.13;;;25.26;100.00
43430;BME280;29028;43.234;27.896;2022-08-23T05:42:46;99515.94;;;25.30;100.00
43430;BME280;29028;43.234;27.896;2022-08-23T05:43:07;99516.00;;;25.25;100.00
43430;BME280;29028;43.234;27.896;2022-08-23T05:43:28;99517.56;;;25.31;100.00
43430;BME280;29028;43.234;27.896;2022-08-23T05:43:50;99518.06;;;25.33;100.00
43430;BME280;29028;43.234;27.896;2022-08-23T05:44:12;99511.03;;;25.41;100.00
43430;BME280;29028;43.234;27.896;2022-08-23T05:44:33;99519.81;;;25.43;100.00
43430;BME280;29028;43.234;27.896;2022-08-23T05:44:54;99527.50;;;25.46;100.00
43430;BME280;29028;43.234;27.896;2022-08-23T05:45:15;99521.59;;;25.52;100.00
43430;BME280;29028;43.234;27.896;2022-08-23T05:45:37;99521.28;;;25.54;100.00
43430;BME280;29028;43.234;27.896;2022-08-23T05:46:00;99520.16;;;25.55;100.00
43430;BME280;29028;43.234;27.896;2022-08-23T05:46:22;99519.94;;;25.51;100.00
43430;BME280;29028;43.234;27.896;2022-08-23T05:46:43;99517.41;;;25.55;100.00
43430;BME280;29028;43.234;27.896;2022-08-23T05:47:09;99520.25;;;25.50;100.00
43430;BME280;29028;43.234;27.896;2022-08-23T05:47:30;99520.94;;;25.42;100.00
43430;BME280;29028;43.234;27.896;2022-08-23T05:47:51;99519.78;;;25.29;100.00
43430;BME280;29028;43.234;27.896;2022-08-23T05:48:12;99516.34;;;25.37;100.00
43430;BME280;29028;43.234;27.896;2022-08-23T05:48:35;99524.75;;;25.46;100.00
43430;BME280;29028;43.234;27.896;2022-08-23T05:48:57;99521.69;;;25.47;100.00
43430;BME280;29028;43.234;27.896;2022-08-23T05:49:18;99523.31;;;25.48;100.00
43430;BME280;29028;43.234;27.896;2022-08-23T05:49:40;99518.84;;;25.52;100.00
43430;BME280;29028;43.234;27.896;2022-08-23T05:50:02;99522.31;;;25.58;100.00
43430;BME280;29028;43.234;27.896;2022-08-23T05:50:23;99517.00;;;25.61;100.00
43430;BME280;29028;43.234;27.896;2022-08-23T05:50:44;99521.53;;;25.71;100.00
43430;BME280;29028;43.234;27.896;2022-08-23T05:51:09;99511.00;;;25.73;100.00
43430;BME280;29028;43.234;27.896;2022-08-23T05:51:32;99506.72;;;25.67;100.00
43430;BME280;29028;43.234;27.896;2022-08-23T05:52:15;99506.72;;;25.67;100.00
43430;BME280;29028;43.234;27.896;2022-08-23T05:52:36;99510.81;;;25.83;100.00
43430;BME280;29028;43.234;27.896;2022-08-23T05:52:57;99518.66;;;25.89;100.00
43430;BME280;29028;43.234;27.896;2022-08-23T05:53:19;99516.00;;;25.84;100.00
43430;BME280;29028;43.234;27.896;2022-08-23T05:53:40;99510.47;;;25.84;100.00
43430;BME280;29028;43.234;27.896;2022-08-23T05:54:05;99517.03;;;25.88;100.00
43430;BME280;29028;43.234;27.896;2022-08-23T05:54:27;99506.75;;;25.94;100.00